• Join FlightAware (Why Join?)
  • Login
  • US Flag 
10:34AM EDT


 

Airport Tracker/Info


-or-


 

Live Flight TrackerFlight Track Log ✈ N400PU ✈ 24-Oct-2013 ✈ KLAF - KORL

Flight Track Log - Related Links

Times and Time Zones

All times are in EDT time to prevent confusion due to time zone crossing. See the N400PU flight status page for this flight to view local times or setup timezone preferences in your user account.

Time Position Orientation Groundspeed Altitude Reporting Facility
EDT Latitude Longitude Course Direction KTS MPH feet Rate Location/Type
06:05PM 40.4133 -86.9772 225° Southwest 189 217 1,900  Level Chicago Center
06:05PM 40.3914 -87.0061 225° Southwest 244 281 3,700 3,660 Climbing Chicago Center
06:06PM 40.3275 -86.9808 163° South 242 278 7,800 2,880 Climbing Chicago Center
06:07PM 40.2597 -86.9400 155° Southeast 266 306 9,700 1,980 Climbing Chicago Center
06:08PM 40.1639 -86.8850 156° South 316 364 12,000 2,340 Climbing Chicago Center
06:09PM 40.0828 -86.8392 157° South 317 365 14,600 2,580 Climbing Chicago Center
06:10PM 39.9969 -86.7903 156° South 336 387 17,400 2,580 Climbing Chicago Center
06:11PM 39.9081 -86.7403 157° South 349 402 20,000 2,220 Climbing Chicago Center
06:12PM 39.8147 -86.6869 156° South 368 423 22,100 1,980 Climbing Chicago Center
06:14PM 39.6958 -86.6189 156° South 391 450 24,200 1,800 Climbing Chicago Center
06:15PM 39.5939 -86.5606 156° South 401 461 25,900 1,500 Climbing Chicago Center
06:16PM 39.4875 -86.5219 164° South 400 460 27,400 1,320 Climbing Chicago Center
06:17PM 39.3764 -86.4897 167° South 413 475 28,700 1,320 Climbing Chicago Center
06:18PM 39.2414 -86.4406 164° South 426 490 30,200 1,260 Climbing Chicago Center
06:19PM 39.0825 -86.3472 155° Southeast 449 517 31,900 1,140 Climbing Indianapolis Center
06:20PM 38.9700 -86.2850 157° South 445 512 33,100 1,080 Climbing Indianapolis Center
06:21PM 38.8633 -86.2244 156° South 440 506 34,200 1,140 Climbing Indianapolis Center
06:22PM 38.7522 -86.1617 156° South 434 499 35,500 960 Climbing Indianapolis Center
06:23PM 38.6467 -86.1019 156° South 421 484 36,300 600 Climbing Indianapolis Center
06:24PM 38.5175 -86.0314 157° South 416 479 36,800 420 Climbing Indianapolis Center
06:25PM 38.4078 -85.9703 156° South 423 487 37,200 360 Climbing Indianapolis Center
06:26PM 38.3003 -85.8983 152° Southeast 437 503 37,600 480 Climbing Indianapolis Center
06:27PM 38.2008 -85.7992 142° Southeast 455 524 38,200 480 Climbing Indianapolis Center
06:28PM 38.0917 -85.7344 155° Southeast 429 494 38,700 360 Climbing Indianapolis Center
06:29PM 37.9850 -85.6747 156° South 423 487 39,000 120 Climbing Indianapolis Center
06:30PM 37.8725 -85.6156 157° South 429 494 39,000  Level Indianapolis Center
06:31PM 37.7575 -85.5561 158° South 440 506 39,000  Level Indianapolis Center
06:33PM 37.6269 -85.4967 160° South 428 493 39,000  Level Indianapolis Center
06:34PM 37.5097 -85.4592 166° South 429 494 39,000  Level Indianapolis Center
06:35PM 37.3936 -85.4219 166° South 430 495 39,000  Level Indianapolis Center
06:36PM 37.2783 -85.3869 166° South 428 493 39,000  Level Indianapolis Center
06:37PM 37.1425 -85.3456 166° South 429 494 39,000  Level Indianapolis Center
06:38PM 37.0281 -85.3117 167° South 423 487 39,000  Level Indianapolis Center
06:39PM 36.9250 -85.2808 167° South 420 483 39,000  Level Indianapolis Center
06:40PM 36.7897 -85.2417 167° South 416 479 39,000  Level Indianapolis Center
06:41PM 36.6750 -85.2083 167° South 421 484 39,000  Level Indianapolis Center
06:42PM 36.5636 -85.1622 162° South 427 491 39,000  Level Indianapolis Center
06:43PM 36.4531 -85.0989 155° Southeast 437 503 39,000  Level Indianapolis Center
06:44PM 36.3414 -85.0381 156° South 436 502 39,000  Level Indianapolis Center
06:45PM 36.2300 -84.9753 156° South 437 503 39,000  Level Indianapolis Center
06:46PM 36.0964 -84.8997 155° Southeast 438 504 39,000  Level Indianapolis Center
06:47PM 36.0347 -84.8656 156° South 440 506 39,000  Level Atlanta Center
06:48PM 35.9203 -84.8028 156° South 440 506 39,000  Level Atlanta Center
06:49PM 35.7956 -84.7325 155° Southeast 440 506 39,000  Level Atlanta Center
06:50PM 35.6875 -84.6753 157° South 440 506 39,000  Level Atlanta Center
06:51PM 35.5731 -84.6133 156° South 440 506 39,000  Level Atlanta Center
06:52PM 35.4628 -84.5539 156° South 440 506 39,000  Level Atlanta Center
06:53PM 35.3564 -84.4944 155° Southeast 435 501 39,000  Level Atlanta Center
06:54PM 35.2461 -84.4356 156° South 435 501 39,000  Level Atlanta Center
06:55PM 35.1400 -84.3767 156° South 435 501 39,000  Level Atlanta Center
06:56PM 35.0317 -84.3178 156° South 430 495 39,000  Level Atlanta Center
06:57PM 34.9419 -84.2719 157° South 430 495 39,000  Level Atlanta Center
06:58PM 34.8125 -84.2006 156° South 430 495 39,000  Level Atlanta Center
06:59PM 34.7022 -84.1422 156° South 435 501 39,000  Level Atlanta Center
07:00PM 34.5936 -84.0792 154° Southeast 435 501 39,000  Level Atlanta Center
07:01PM 34.4850 -84.0211 156° South 429 494 39,000  Level Atlanta Center
07:02PM 34.3744 -83.9608 156° South 434 499 39,000  Level Atlanta Center
07:03PM 34.2658 -83.9031 156° South 434 499 39,000  Level Atlanta Center
07:04PM 34.1553 -83.8481 158° South 439 505 39,000  Level Atlanta Center
07:05PM 34.0569 -83.7931 155° Southeast 439 505 39,000  Level Atlanta Center
07:06PM 33.9461 -83.7383 158° South 434 499 39,000 -240 Level Atlanta Center
07:07PM 33.8375 -83.6811 156° South 440 506 38,600 -540 Descending Atlanta Center
07:08PM 33.7225 -83.6217 157° South 440 506 38,000 -300 Descending Atlanta Center
07:09PM 33.6139 -83.5675 157° South 440 506 38,000  Level Atlanta Center
07:10PM 33.4925 -83.5033 156° South 434 499 38,000  Level Atlanta Center
07:11PM 33.3817 -83.4492 158° South 441 507 38,000  Level Atlanta Center
07:12PM 33.2728 -83.3928 157° South 436 502 38,000  Level Atlanta Center
07:13PM 33.1619 -83.3367 157° South 436 502 38,000  Level Atlanta Center
07:14PM 33.0761 -83.2925 157° South 436 502 38,000  Level Atlanta Center
07:15PM 32.9544 -83.2269 156° South 430 495 38,000  Level Atlanta Center
07:16PM 32.8497 -83.1708 156° South 430 495 38,000  Level Atlanta Center
07:17PM 32.7450 -83.1178 157° South 425 489 38,000  Level Atlanta Center
07:18PM 32.5714 -83.0281 156° South 420 483 38,000  Level Jacksonville Center
07:19PM 32.4650 -82.9739 157° South 420 483 38,000  Level Jacksonville Center
07:20PM 32.3586 -82.9172 156° South 420 483 38,000  Level Jacksonville Center
07:21PM 32.2522 -82.8656 158° South 415 478 38,000  Level Jacksonville Center
07:22PM 32.1456 -82.8117 157° South 415 478 38,000  Level Jacksonville Center
07:23PM 32.0369 -82.7578 157° South 415 478 38,000  Level Jacksonville Center
07:24PM 31.9283 -82.7067 158° South 415 478 38,000  Level Jacksonville Center
07:25PM 31.8217 -82.6506 156° South 415 478 38,000  Level Jacksonville Center
07:26PM 31.7111 -82.5947 157° South 415 478 38,000  Level Jacksonville Center
07:27PM 31.5939 -82.5389 158° South 415 478 38,000  Level Jacksonville Center
07:28PM 31.4853 -82.4833 156° South 415 478 38,000  Level Jacksonville Center
07:29PM 31.3806 -82.4303 157° South 415 478 38,000  Level Jacksonville Center
07:30PM 31.2739 -82.3822 159° South 410 472 38,000  Level Jacksonville Center
07:31PM 31.1672 -82.3317 158° South 415 478 38,000 -360 Level Jacksonville Center
07:32PM 31.0606 -82.2789 157° South 415 478 37,300 -1,140 Descending Jacksonville Center
07:33PM 30.9539 -82.2289 158° South 415 478 35,800 -1,500 Descending Jacksonville Center
07:34PM 30.8450 -82.1861 161° South 415 478 34,300 -1,500 Descending Jacksonville Center
07:35PM 30.7342 -82.1628 170° South 405 466 32,800 -1,560 Descending Jacksonville Center
07:36PM 30.6214 -82.1564 177° South 410 472 31,200 -1,440 Descending Jacksonville Center
07:37PM 30.5214 -82.1667 185° South 402 463 30,000 -600 Descending Jacksonville Center
07:38PM 30.4086 -82.1869 189° South 407 468 30,000  Level Jacksonville Center
07:39PM 30.2919 -82.2069 188° South 407 468 30,000 -300 Level Jacksonville Center
07:40PM 30.1792 -82.2269 189° South 407 468 29,400 -1,140 Descending Jacksonville Center
07:41PM 30.0644 -82.2494 190° South 412 474 27,800 -1,680 Descending Jacksonville Center
07:42PM 29.9350 -82.2669 187° South 417 480 26,100 -1,440 Descending Jacksonville Center
07:43PM 29.8097 -82.2342 167° South 435 501 25,000 -960 Descending Jacksonville Center
07:44PM 29.7050 -82.1944 162° South 441 507 24,200 -1,200 Descending Jacksonville Center
07:45PM 29.5881 -82.1569 164° South 441 507 22,600 -1,620 Descending Jacksonville Center
07:46PM 29.4731 -82.1219 165° South 434 499 21,000 -1,620 Descending Jacksonville Center
07:47PM 29.3600 -82.0847 164° South 434 499 19,400 -1,740 Descending Jacksonville Center
07:48PM 29.2492 -82.0500 165° South 428 493 17,600 -1,980 Descending Jacksonville Center
07:49PM 29.1383 -82.0153 165° South 417 480 15,500 -1,980 Descending Jacksonville Center
07:50PM 29.0400 -81.9831 164° South 396 456 13,700 -1,800 Descending Jacksonville Center
07:51PM 28.9375 -81.9483 163° South 376 433 11,900 -1,380 Descending Jacksonville Center
07:52PM 28.8536 -81.8994 153° Southeast 350 403 11,000 -960 Descending Jacksonville Center
07:53PM 28.7800 -81.8361 143° Southeast 335 386 10,000 -1,680 Descending Jacksonville Center
07:54PM 28.7106 -81.7800 145° Southeast 322 371 7,700 -1,980 Descending Jacksonville Center
07:55PM 28.6561 -81.7356 144° Southeast 296 341 6,100 -1,620 Descending Jacksonville Center
07:56PM 28.5833 -81.6833 148° Southeast 244 281 4,300 -1,620 Descending Orlando TRACON
07:57PM 28.5333 -81.6333 139° Southeast 232 267 2,900 -1,260 Descending Orlando TRACON
07:58PM 28.4833 -81.6000 150° Southeast 217 250 2,000 -480 Descending Orlando TRACON
07:59PM 28.4833 -81.5500 90° East 167 192 2,000  Level Orlando TRACON
08:00PM 28.4833 -81.4833 90° East 166 191 2,000 -60 Level Orlando TRACON
08:01PM 28.5000 -81.4333 69° East 165 190 1,900 -360 Descending Orlando TRACON
08:02PM 28.5167 -81.4000 60° Northeast 116 133 1,300 -600 Descending Orlando TRACON
08:03PM 28.5333 -81.3667 60° Northeast 119 137 700 -600 Descending Orlando TRACON
08:05PM 28.5455 -81.3329 24° Northeast  Level Estimated
08:12PM 28.5455 -81.3329 24° Northeast  Level Estimated
08:13PM 28.5455 -81.3329 24° Northeast  Level Estimated
08:14PM 28.5455 -81.3329 24° Northeast  Level Estimated
08:15PM 28.5455 -81.3329 24° Northeast  Level Estimated